sensor_id;sensor_type;location;lat;lon;timestamp;P1;durP1;ratioP1;P2;durP2;ratioP2
21806;SDS011;11065;50.786;7.840;2023-01-31T00:02:26;10.47;;;3.57;;
21806;SDS011;11065;50.786;7.840;2023-01-31T00:04:54;9.03;;;2.97;;
21806;SDS011;11065;50.786;7.840;2023-01-31T00:07:22;12.37;;;3.10;;
21806;SDS011;11065;50.786;7.840;2023-01-31T00:09:50;14.87;;;3.23;;
21806;SDS011;11065;50.786;7.840;2023-01-31T00:12:18;11.57;;;3.90;;
21806;SDS011;11065;50.786;7.840;2023-01-31T00:14:46;12.40;;;3.17;;
21806;SDS011;11065;50.786;7.840;2023-01-31T00:17:14;10.37;;;3.10;;
21806;SDS011;11065;50.786;7.840;2023-01-31T00:19:43;12.57;;;2.97;;
21806;SDS011;11065;50.786;7.840;2023-01-31T00:22:11;11.40;;;3.27;;
21806;SDS011;11065;50.786;7.840;2023-01-31T00:24:39;10.07;;;3.73;;
21806;SDS011;11065;50.786;7.840;2023-01-31T00:27:07;14.73;;;3.17;;
21806;SDS011;11065;50.786;7.840;2023-01-31T00:29:35;10.43;;;3.00;;
21806;SDS011;11065;50.786;7.840;2023-01-31T00:32:04;12.00;;;3.23;;
21806;SDS011;11065;50.786;7.840;2023-01-31T00:34:32;12.20;;;3.20;;
21806;SDS011;11065;50.786;7.840;2023-01-31T00:37:01;10.77;;;3.13;;
21806;SDS011;11065;50.786;7.840;2023-01-31T00:39:31;10.57;;;2.87;;
21806;SDS011;11065;50.786;7.840;2023-01-31T00:41:59;14.37;;;2.70;;
21806;SDS011;11065;50.786;7.840;2023-01-31T00:44:28;9.63;;;2.40;;
21806;SDS011;11065;50.786;7.840;2023-01-31T00:46:56;7.87;;;2.57;;
21806;SDS011;11065;50.786;7.840;2023-01-31T00:49:24;13.83;;;3.00;;
21806;SDS011;11065;50.786;7.840;2023-01-31T00:51:52;11.10;;;3.13;;
21806;SDS011;11065;50.786;7.840;2023-01-31T00:54:21;11.40;;;2.47;;
21806;SDS011;11065;50.786;7.840;2023-01-31T00:56:50;11.50;;;2.83;;
21806;SDS011;11065;50.786;7.840;2023-01-31T00:59:18;12.17;;;2.87;;
21806;SDS011;11065;50.786;7.840;2023-01-31T01:01:46;8.50;;;2.50;;
21806;SDS011;11065;50.786;7.840;2023-01-31T01:04:15;11.23;;;2.97;;
21806;SDS011;11065;50.786;7.840;2023-01-31T01:06:43;7.73;;;2.77;;
21806;SDS011;11065;50.786;7.840;2023-01-31T01:09:12;12.20;;;3.07;;
21806;SDS011;11065;50.786;7.840;2023-01-31T01:11:42;9.63;;;2.83;;
21806;SDS011;11065;50.786;7.840;2023-01-31T01:14:10;13.20;;;2.93;;
21806;SDS011;11065;50.786;7.840;2023-01-31T01:16:39;12.80;;;2.60;;
21806;SDS011;11065;50.786;7.840;2023-01-31T01:19:09;10.37;;;2.53;;
21806;SDS011;11065;50.786;7.840;2023-01-31T01:21:42;8.03;;;2.23;;
21806;SDS011;11065;50.786;7.840;2023-01-31T01:24:12;8.47;;;2.80;;
21806;SDS011;11065;50.786;7.840;2023-01-31T01:26:44;7.13;;;2.27;;
21806;SDS011;11065;50.786;7.840;2023-01-31T01:29:12;7.60;;;2.00;;
21806;SDS011;11065;50.786;7.840;2023-01-31T01:31:41;5.93;;;2.23;;
21806;SDS011;11065;50.786;7.840;2023-01-31T01:34:10;9.23;;;2.30;;
21806;SDS011;11065;50.786;7.840;2023-01-31T01:36:40;10.43;;;2.50;;
21806;SDS011;11065;50.786;7.840;2023-01-31T01:39:14;7.33;;;2.67;;
21806;SDS011;11065;50.786;7.840;2023-01-31T01:41:45;10.90;;;2.37;;
21806;SDS011;11065;50.786;7.840;2023-01-31T01:47:13;9.73;;;2.30;;
21806;SDS011;11065;50.786;7.840;2023-01-31T01:49:48;8.97;;;2.60;;
21806;SDS011;11065;50.786;7.840;2023-01-31T01:52:20;8.57;;;2.30;;
21806;SDS011;11065;50.786;7.840;2023-01-31T01:54:51;11.40;;;2.37;;
21806;SDS011;11065;50.786;7.840;2023-01-31T01:57:24;6.40;;;2.20;;
21806;SDS011;11065;50.786;7.840;2023-01-31T01:59:59;10.07;;;2.70;;
21806;SDS011;11065;50.786;7.840;2023-01-31T02:02:39;10.97;;;2.60;;
21806;SDS011;11065;50.786;7.840;2023-01-31T02:05:09;9.03;;;2.23;;
21806;SDS011;11065;50.786;7.840;2023-01-31T02:07:42;9.00;;;2.67;;
21806;SDS011;11065;50.786;7.840;2023-01-31T02:10:11;6.33;;;2.00;;
21806;SDS011;11065;50.786;7.840;2023-01-31T02:12:45;8.37;;;2.30;;
21806;SDS011;11065;50.786;7.840;2023-01-31T02:15:13;11.07;;;2.27;;
21806;SDS011;11065;50.786;7.840;2023-01-31T02:17:41;7.73;;;2.27;;
21806;SDS011;11065;50.786;7.840;2023-01-31T02:20:14;5.40;;;2.07;;
21806;SDS011;11065;50.786;7.840;2023-01-31T02:22:59;8.67;;;2.53;;
21806;SDS011;11065;50.786;7.840;2023-01-31T02:25:45;5.27;;;1.83;;
21806;SDS011;11065;50.786;7.840;2023-01-31T02:34:31;6.23;;;2.07;;
21806;SDS011;11065;50.786;7.840;2023-01-31T02:37:11;10.50;;;4.07;;
21806;SDS011;11065;50.786;7.840;2023-01-31T02:39:47;13.40;;;5.03;;
21806;SDS011;11065;50.786;7.840;2023-01-31T02:42:26;9.73;;;3.30;;
21806;SDS011;11065;50.786;7.840;2023-01-31T02:45:03;12.80;;;3.50;;
21806;SDS011;11065;50.786;7.840;2023-01-31T02:47:42;11.77;;;3.30;;
21806;SDS011;11065;50.786;7.840;2023-01-31T02:50:28;11.13;;;2.63;;
21806;SDS011;11065;50.786;7.840;2023-01-31T02:53:01;9.77;;;2.77;;
21806;SDS011;11065;50.786;7.840;2023-01-31T02:55:34;8.60;;;2.33;;
21806;SDS011;11065;50.786;7.840;2023-01-31T02:58:24;7.97;;;2.20;;
21806;SDS011;11065;50.786;7.840;2023-01-31T03:00:57;10.50;;;2.10;;
21806;SDS011;11065;50.786;7.840;2023-01-31T03:03:31;9.23;;;2.23;;
21806;SDS011;11065;50.786;7.840;2023-01-31T03:06:11;9.27;;;2.30;;
21806;SDS011;11065;50.786;7.840;2023-01-31T03:09:03;9.27;;;2.50;;
21806;SDS011;11065;50.786;7.840;2023-01-31T03:11:37;7.13;;;2.00;;
21806;SDS011;11065;50.786;7.840;2023-01-31T03:14:19;9.30;;;2.50;;
21806;SDS011;11065;50.786;7.840;2023-01-31T03:16:55;10.00;;;2.10;;
21806;SDS011;11065;50.786;7.840;2023-01-31T03:19:49;7.30;;;1.73;;
21806;SDS011;11065;50.786;7.840;2023-01-31T03:22:31;7.93;;;1.70;;
21806;SDS011;11065;50.786;7.840;2023-01-31T03:25:02;9.23;;;2.03;;
21806;SDS011;11065;50.786;7.840;2023-01-31T03:27:33;7.03;;;1.70;;
21806;SDS011;11065;50.786;7.840;2023-01-31T03:30:04;8.73;;;2.10;;
21806;SDS011;11065;50.786;7.840;2023-01-31T03:32:41;7.47;;;1.90;;
21806;SDS011;11065;50.786;7.840;2023-01-31T03:35:11;5.87;;;1.47;;
21806;SDS011;11065;50.786;7.840;2023-01-31T03:37:44;7.83;;;2.00;;
21806;SDS011;11065;50.786;7.840;2023-01-31T03:40:20;8.20;;;2.43;;
21806;SDS011;11065;50.786;7.840;2023-01-31T03:42:54;13.50;;;2.50;;
21806;SDS011;11065;50.786;7.840;2023-01-31T03:45:26;8.67;;;1.80;;
21806;SDS011;11065;50.786;7.840;2023-01-31T03:48:00;9.80;;;2.57;;
21806;SDS011;11065;50.786;7.840;2023-01-31T03:50:36;8.57;;;2.07;;
21806;SDS011;11065;50.786;7.840;2023-01-31T03:53:10;7.20;;;1.63;;
21806;SDS011;11065;50.786;7.840;2023-01-31T03:55:43;9.73;;;2.30;;
21806;SDS011;11065;50.786;7.840;2023-01-31T03:58:17;9.97;;;2.67;;
21806;SDS011;11065;50.786;7.840;2023-01-31T04:00:49;8.00;;;2.20;;
21806;SDS011;11065;50.786;7.840;2023-01-31T04:03:20;7.00;;;1.80;;
21806;SDS011;11065;50.786;7.840;2023-01-31T04:05:54;10.07;;;2.33;;
21806;SDS011;11065;50.786;7.840;2023-01-31T04:08:26;5.80;;;1.77;;
21806;SDS011;11065;50.786;7.840;2023-01-31T04:10:59;6.73;;;1.67;;
21806;SDS011;11065;50.786;7.840;2023-01-31T04:13:29;7.43;;;1.83;;
21806;SDS011;11065;50.786;7.840;2023-01-31T04:15:57;5.57;;;1.97;;
21806;SDS011;11065;50.786;7.840;2023-01-31T04:18:26;8.33;;;2.07;;
21806;SDS011;11065;50.786;7.840;2023-01-31T04:20:54;6.77;;;1.70;;
21806;SDS011;11065;50.786;7.840;2023-01-31T04:23:22;9.90;;;2.10;;
21806;SDS011;11065;50.786;7.840;2023-01-31T04:25:53;8.40;;;1.90;;
21806;SDS011;11065;50.786;7.840;2023-01-31T04:28:21;7.97;;;2.00;;
21806;SDS011;11065;50.786;7.840;2023-01-31T04:30:51;5.40;;;1.90;;
21806;SDS011;11065;50.786;7.840;2023-01-31T04:33:19;6.73;;;1.60;;
21806;SDS011;11065;50.786;7.840;2023-01-31T04:35:49;7.07;;;2.00;;
21806;SDS011;11065;50.786;7.840;2023-01-31T04:38:18;6.43;;;1.50;;
21806;SDS011;11065;50.786;7.840;2023-01-31T04:40:46;8.70;;;1.90;;
21806;SDS011;11065;50.786;7.840;2023-01-31T04:43:15;5.70;;;1.67;;
21806;SDS011;11065;50.786;7.840;2023-01-31T04:45:43;5.90;;;2.20;;
21806;SDS011;11065;50.786;7.840;2023-01-31T04:48:12;6.17;;;2.10;;
21806;SDS011;11065;50.786;7.840;2023-01-31T04:50:40;7.20;;;2.00;;
21806;SDS011;11065;50.786;7.840;2023-01-31T04:53:08;5.27;;;1.50;;
21806;SDS011;11065;50.786;7.840;2023-01-31T04:55:36;5.87;;;1.70;;
21806;SDS011;11065;50.786;7.840;2023-01-31T04:58:04;8.10;;;2.20;;
21806;SDS011;11065;50.786;7.840;2023-01-31T05:00:34;5.10;;;1.83;;
21806;SDS011;11065;50.786;7.840;2023-01-31T05:03:02;5.87;;;1.70;;
21806;SDS011;11065;50.786;7.840;2023-01-31T05:05:31;6.77;;;1.57;;
21806;SDS011;11065;50.786;7.840;2023-01-31T05:08:01;6.50;;;1.67;;
21806;SDS011;11065;50.786;7.840;2023-01-31T05:10:30;8.83;;;1.57;;
21806;SDS011;11065;50.786;7.840;2023-01-31T05:13:00;5.27;;;1.57;;
21806;SDS011;11065;50.786;7.840;2023-01-31T05:15:29;6.90;;;1.73;;
21806;SDS011;11065;50.786;7.840;2023-01-31T05:17:59;6.20;;;1.90;;
21806;SDS011;11065;50.786;7.840;2023-01-31T05:20:30;7.10;;;1.83;;
21806;SDS011;11065;50.786;7.840;2023-01-31T05:23:01;9.40;;;2.17;;
21806;SDS011;11065;50.786;7.840;2023-01-31T05:25:30;5.77;;;2.03;;
21806;SDS011;11065;50.786;7.840;2023-01-31T05:27:58;7.17;;;2.17;;
21806;SDS011;11065;50.786;7.840;2023-01-31T05:30:26;10.23;;;2.40;;
21806;SDS011;11065;50.786;7.840;2023-01-31T05:32:55;8.53;;;2.20;;
21806;SDS011;11065;50.786;7.840;2023-01-31T05:35:24;6.07;;;1.43;;
21806;SDS011;11065;50.786;7.840;2023-01-31T05:37:52;6.57;;;2.03;;
21806;SDS011;11065;50.786;7.840;2023-01-31T05:40:21;6.47;;;1.60;;
21806;SDS011;11065;50.786;7.840;2023-01-31T05:42:52;6.03;;;1.30;;
21806;SDS011;11065;50.786;7.840;2023-01-31T05:45:21;6.87;;;2.20;;
21806;SDS011;11065;50.786;7.840;2023-01-31T05:47:49;7.10;;;2.00;;
21806;SDS011;11065;50.786;7.840;2023-01-31T05:50:18;6.87;;;1.80;;
21806;SDS011;11065;50.786;7.840;2023-01-31T05:52:51;8.23;;;1.80;;
21806;SDS011;11065;50.786;7.840;2023-01-31T05:55:20;7.43;;;1.97;;
21806;SDS011;11065;50.786;7.840;2023-01-31T05:57:50;5.50;;;1.63;;
21806;SDS011;11065;50.786;7.840;2023-01-31T06:00:18;5.70;;;1.77;;
21806;SDS011;11065;50.786;7.840;2023-01-31T06:02:47;5.30;;;1.63;;
21806;SDS011;11065;50.786;7.840;2023-01-31T06:05:15;9.17;;;2.37;;
21806;SDS011;11065;50.786;7.840;2023-01-31T06:07:45;6.17;;;2.03;;
21806;SDS011;11065;50.786;7.840;2023-01-31T06:10:14;6.10;;;1.67;;
21806;SDS011;11065;50.786;7.840;2023-01-31T06:12:46;15.57;;;3.30;;
21806;SDS011;11065;50.786;7.840;2023-01-31T06:15:14;8.53;;;2.30;;
21806;SDS011;11065;50.786;7.840;2023-01-31T06:17:42;9.53;;;2.13;;
21806;SDS011;11065;50.786;7.840;2023-01-31T06:20:10;7.83;;;2.83;;
21806;SDS011;11065;50.786;7.840;2023-01-31T06:22:39;8.80;;;2.00;;
21806;SDS011;11065;50.786;7.840;2023-01-31T06:25:08;6.60;;;2.00;;
21806;SDS011;11065;50.786;7.840;2023-01-31T06:27:37;9.80;;;2.87;;
21806;SDS011;11065;50.786;7.840;2023-01-31T06:30:06;7.47;;;2.30;;
21806;SDS011;11065;50.786;7.840;2023-01-31T06:32:36;11.87;;;2.80;;
21806;SDS011;11065;50.786;7.840;2023-01-31T06:35:04;8.33;;;2.50;;
21806;SDS011;11065;50.786;7.840;2023-01-31T06:37:32;8.53;;;2.77;;
21806;SDS011;11065;50.786;7.840;2023-01-31T06:40:00;9.67;;;3.20;;
21806;SDS011;11065;50.786;7.840;2023-01-31T06:42:28;6.57;;;2.63;;
21806;SDS011;11065;50.786;7.840;2023-01-31T06:44:58;14.70;;;4.67;;
21806;SDS011;11065;50.786;7.840;2023-01-31T06:47:26;11.63;;;3.50;;
21806;SDS011;11065;50.786;7.840;2023-01-31T06:49:54;13.17;;;3.70;;
21806;SDS011;11065;50.786;7.840;2023-01-31T06:52:22;11.77;;;3.43;;
21806;SDS011;11065;50.786;7.840;2023-01-31T06:54:50;9.63;;;3.53;;
21806;SDS011;11065;50.786;7.840;2023-01-31T06:57:18;14.63;;;4.40;;
21806;SDS011;11065;50.786;7.840;2023-01-31T06:59:46;11.33;;;3.47;;
21806;SDS011;11065;50.786;7.840;2023-01-31T07:02:15;8.43;;;3.73;;
21806;SDS011;11065;50.786;7.840;2023-01-31T07:04:43;9.83;;;3.53;;
21806;SDS011;11065;50.786;7.840;2023-01-31T07:07:11;9.00;;;3.33;;
21806;SDS011;11065;50.786;7.840;2023-01-31T07:09:40;9.80;;;3.37;;
21806;SDS011;11065;50.786;7.840;2023-01-31T07:12:07;8.30;;;3.23;;
21806;SDS011;11065;50.786;7.840;2023-01-31T07:14:36;8.13;;;2.83;;
21806;SDS011;11065;50.786;7.840;2023-01-31T07:17:04;7.10;;;3.00;;
21806;SDS011;11065;50.786;7.840;2023-01-31T07:19:34;9.47;;;2.70;;
21806;SDS011;11065;50.786;7.840;2023-01-31T07:22:02;7.30;;;3.00;;
21806;SDS011;11065;50.786;7.840;2023-01-31T07:24:30;6.77;;;2.97;;
21806;SDS011;11065;50.786;7.840;2023-01-31T07:26:58;9.77;;;2.70;;
21806;SDS011;11065;50.786;7.840;2023-01-31T07:29:27;8.70;;;3.13;;
21806;SDS011;11065;50.786;7.840;2023-01-31T07:31:55;10.53;;;2.87;;
21806;SDS011;11065;50.786;7.840;2023-01-31T07:34:24;8.90;;;2.53;;
21806;SDS011;11065;50.786;7.840;2023-01-31T07:36:53;6.97;;;2.57;;
21806;SDS011;11065;50.786;7.840;2023-01-31T07:39:21;9.40;;;3.40;;
21806;SDS011;11065;50.786;7.840;2023-01-31T07:41:49;9.17;;;2.93;;
21806;SDS011;11065;50.786;7.840;2023-01-31T07:44:20;9.67;;;3.23;;
21806;SDS011;11065;50.786;7.840;2023-01-31T07:46:48;8.07;;;2.90;;
21806;SDS011;11065;50.786;7.840;2023-01-31T07:49:16;10.60;;;3.17;;
21806;SDS011;11065;50.786;7.840;2023-01-31T07:51:44;10.17;;;3.37;;
21806;SDS011;11065;50.786;7.840;2023-01-31T07:54:14;8.87;;;3.57;;
21806;SDS011;11065;50.786;7.840;2023-01-31T07:56:43;11.33;;;3.30;;
21806;SDS011;11065;50.786;7.840;2023-01-31T07:59:11;7.27;;;2.80;;
21806;SDS011;11065;50.786;7.840;2023-01-31T08:01:39;8.77;;;3.03;;
21806;SDS011;11065;50.786;7.840;2023-01-31T08:04:24;7.37;;;2.47;;
21806;SDS011;11065;50.786;7.840;2023-01-31T08:06:53;10.50;;;3.67;;
21806;SDS011;11065;50.786;7.840;2023-01-31T08:09:23;9.63;;;3.27;;
21806;SDS011;11065;50.786;7.840;2023-01-31T08:11:51;6.03;;;2.50;;
21806;SDS011;11065;50.786;7.840;2023-01-31T08:14:19;10.20;;;2.80;;
21806;SDS011;11065;50.786;7.840;2023-01-31T08:16:50;9.20;;;3.03;;
21806;SDS011;11065;50.786;7.840;2023-01-31T08:19:18;13.83;;;4.13;;
21806;SDS011;11065;50.786;7.840;2023-01-31T08:21:46;10.13;;;3.37;;
21806;SDS011;11065;50.786;7.840;2023-01-31T08:24:14;12.17;;;4.10;;
21806;SDS011;11065;50.786;7.840;2023-01-31T08:26:44;8.87;;;3.37;;
21806;SDS011;11065;50.786;7.840;2023-01-31T08:29:12;9.23;;;3.57;;
21806;SDS011;11065;50.786;7.840;2023-01-31T08:31:40;6.53;;;3.23;;
21806;SDS011;11065;50.786;7.840;2023-01-31T08:34:09;7.13;;;2.67;;
21806;SDS011;11065;50.786;7.840;2023-01-31T08:36:38;15.43;;;3.87;;
21806;SDS011;11065;50.786;7.840;2023-01-31T08:39:06;11.17;;;3.27;;
21806;SDS011;11065;50.786;7.840;2023-01-31T08:41:35;8.87;;;3.00;;
21806;SDS011;11065;50.786;7.840;2023-01-31T08:44:05;8.10;;;3.23;;
21806;SDS011;11065;50.786;7.840;2023-01-31T08:46:35;8.07;;;2.80;;
21806;SDS011;11065;50.786;7.840;2023-01-31T08:49:04;11.93;;;3.17;;
21806;SDS011;11065;50.786;7.840;2023-01-31T08:51:32;10.07;;;3.97;;
21806;SDS011;11065;50.786;7.840;2023-01-31T08:54:01;10.03;;;3.30;;
21806;SDS011;11065;50.786;7.840;2023-01-31T08:56:30;7.73;;;3.30;;
21806;SDS011;11065;50.786;7.840;2023-01-31T08:58:58;10.20;;;3.30;;
21806;SDS011;11065;50.786;7.840;2023-01-31T09:01:27;9.10;;;3.70;;
21806;SDS011;11065;50.786;7.840;2023-01-31T09:03:55;10.57;;;3.37;;
21806;SDS011;11065;50.786;7.840;2023-01-31T09:06:24;6.83;;;3.17;;
21806;SDS011;11065;50.786;7.840;2023-01-31T09:08:54;7.73;;;3.10;;
21806;SDS011;11065;50.786;7.840;2023-01-31T09:11:24;10.13;;;3.10;;
21806;SDS011;11065;50.786;7.840;2023-01-31T09:13:54;8.40;;;3.30;;
21806;SDS011;11065;50.786;7.840;2023-01-31T09:16:22;6.80;;;2.63;;
21806;SDS011;11065;50.786;7.840;2023-01-31T09:18:51;16.17;;;7.07;;
21806;SDS011;11065;50.786;7.840;2023-01-31T09:21:21;11.60;;;4.50;;
21806;SDS011;11065;50.786;7.840;2023-01-31T09:23:53;11.60;;;4.10;;
21806;SDS011;11065;50.786;7.840;2023-01-31T09:26:22;12.17;;;3.80;;
21806;SDS011;11065;50.786;7.840;2023-01-31T09:28:51;13.20;;;3.23;;
21806;SDS011;11065;50.786;7.840;2023-01-31T09:31:19;7.87;;;2.90;;
21806;SDS011;11065;50.786;7.840;2023-01-31T09:33:47;6.07;;;3.33;;
21806;SDS011;11065;50.786;7.840;2023-01-31T09:36:17;8.60;;;3.20;;
21806;SDS011;11065;50.786;7.840;2023-01-31T09:38:52;12.00;;;3.20;;
21806;SDS011;11065;50.786;7.840;2023-01-31T09:41:22;8.07;;;2.93;;
21806;SDS011;11065;50.786;7.840;2023-01-31T09:43:56;5.80;;;2.73;;
21806;SDS011;11065;50.786;7.840;2023-01-31T09:46:27;9.77;;;2.90;;
21806;SDS011;11065;50.786;7.840;2023-01-31T09:48:59;7.40;;;2.80;;
21806;SDS011;11065;50.786;7.840;2023-01-31T09:51:32;9.40;;;3.17;;
21806;SDS011;11065;50.786;7.840;2023-01-31T09:54:02;9.93;;;3.20;;
21806;SDS011;11065;50.786;7.840;2023-01-31T09:56:40;9.27;;;3.43;;
21806;SDS011;11065;50.786;7.840;2023-01-31T09:59:18;10.30;;;3.10;;
21806;SDS011;11065;50.786;7.840;2023-01-31T10:01:52;8.63;;;3.27;;
21806;SDS011;11065;50.786;7.840;2023-01-31T10:07:22;9.30;;;3.73;;
21806;SDS011;11065;50.786;7.840;2023-01-31T10:09:56;8.33;;;3.47;;
21806;SDS011;11065;50.786;7.840;2023-01-31T10:12:31;11.90;;;3.33;;
21806;SDS011;11065;50.786;7.840;2023-01-31T10:15:04;9.03;;;3.07;;
21806;SDS011;11065;50.786;7.840;2023-01-31T10:17:40;10.50;;;4.00;;
21806;SDS011;11065;50.786;7.840;2023-01-31T10:20:16;9.17;;;3.27;;
21806;SDS011;11065;50.786;7.840;2023-01-31T10:22:50;11.83;;;3.60;;
21806;SDS011;11065;50.786;7.840;2023-01-31T10:25:24;9.63;;;3.77;;
21806;SDS011;11065;50.786;7.840;2023-01-31T10:27:55;10.30;;;4.00;;
21806;SDS011;11065;50.786;7.840;2023-01-31T10:30:39;7.87;;;3.40;;
21806;SDS011;11065;50.786;7.840;2023-01-31T10:33:14;10.90;;;3.87;;
21806;SDS011;11065;50.786;7.840;2023-01-31T10:35:49;6.73;;;3.57;;
21806;SDS011;11065;50.786;7.840;2023-01-31T10:38:23;8.00;;;3.10;;
21806;SDS011;11065;50.786;7.840;2023-01-31T10:40:57;9.13;;;3.93;;
21806;SDS011;11065;50.786;7.840;2023-01-31T10:43:35;9.10;;;3.47;;
21806;SDS011;11065;50.786;7.840;2023-01-31T10:46:07;9.57;;;3.53;;
21806;SDS011;11065;50.786;7.840;2023-01-31T10:48:38;6.83;;;3.23;;
21806;SDS011;11065;50.786;7.840;2023-01-31T10:51:14;7.43;;;3.13;;
21806;SDS011;11065;50.786;7.840;2023-01-31T10:54:04;9.73;;;3.43;;
21806;SDS011;11065;50.786;7.840;2023-01-31T10:56:40;7.83;;;3.23;;
21806;SDS011;11065;50.786;7.840;2023-01-31T10:59:11;9.90;;;3.40;;
21806;SDS011;11065;50.786;7.840;2023-01-31T11:01:51;10.97;;;3.10;;
21806;SDS011;11065;50.786;7.840;2023-01-31T11:04:23;6.47;;;3.03;;
21806;SDS011;11065;50.786;7.840;2023-01-31T11:06:54;10.13;;;3.00;;
21806;SDS011;11065;50.786;7.840;2023-01-31T11:09:28;8.73;;;3.07;;
21806;SDS011;11065;50.786;7.840;2023-01-31T11:11:58;9.17;;;2.97;;
21806;SDS011;11065;50.786;7.840;2023-01-31T11:14:27;8.07;;;3.37;;
21806;SDS011;11065;50.786;7.840;2023-01-31T11:16:57;8.83;;;3.13;;
21806;SDS011;11065;50.786;7.840;2023-01-31T11:19:28;10.20;;;3.10;;
21806;SDS011;11065;50.786;7.840;2023-01-31T11:22:01;8.43;;;3.60;;
21806;SDS011;11065;50.786;7.840;2023-01-31T11:24:31;8.57;;;3.37;;
21806;SDS011;11065;50.786;7.840;2023-01-31T11:27:02;7.53;;;3.40;;
21806;SDS011;11065;50.786;7.840;2023-01-31T11:29:34;10.60;;;3.33;;
21806;SDS011;11065;50.786;7.840;2023-01-31T11:32:05;7.70;;;3.23;;
21806;SDS011;11065;50.786;7.840;2023-01-31T11:34:53;6.60;;;3.13;;
21806;SDS011;11065;50.786;7.840;2023-01-31T11:37:23;7.37;;;3.00;;
21806;SDS011;11065;50.786;7.840;2023-01-31T11:39:56;9.70;;;3.27;;
21806;SDS011;11065;50.786;7.840;2023-01-31T11:42:26;7.67;;;3.03;;
21806;SDS011;11065;50.786;7.840;2023-01-31T11:44:58;8.27;;;3.07;;
21806;SDS011;11065;50.786;7.840;2023-01-31T11:47:30;8.03;;;2.97;;
21806;SDS011;11065;50.786;7.840;2023-01-31T11:50:05;6.73;;;2.90;;
21806;SDS011;11065;50.786;7.840;2023-01-31T11:52:34;6.17;;;2.93;;
21806;SDS011;11065;50.786;7.840;2023-01-31T11:55:05;7.20;;;3.10;;
21806;SDS011;11065;50.786;7.840;2023-01-31T11:57:35;12.47;;;3.57;;
21806;SDS011;11065;50.786;7.840;2023-01-31T12:00:07;9.03;;;3.23;;
21806;SDS011;11065;50.786;7.840;2023-01-31T12:02:49;7.30;;;3.30;;
21806;SDS011;11065;50.786;7.840;2023-01-31T12:05:28;11.33;;;3.80;;
21806;SDS011;11065;50.786;7.840;2023-01-31T12:08:02;9.43;;;3.73;;
21806;SDS011;11065;50.786;7.840;2023-01-31T12:10:33;8.43;;;3.67;;
21806;SDS011;11065;50.786;7.840;2023-01-31T12:13:13;8.63;;;3.43;;
21806;SDS011;11065;50.786;7.840;2023-01-31T12:15:45;6.87;;;3.17;;
21806;SDS011;11065;50.786;7.840;2023-01-31T12:18:19;9.83;;;3.10;;
21806;SDS011;11065;50.786;7.840;2023-01-31T12:20:58;11.17;;;3.90;;
21806;SDS011;11065;50.786;7.840;2023-01-31T12:23:34;5.50;;;2.60;;
21806;SDS011;11065;50.786;7.840;2023-01-31T12:26:10;7.87;;;3.00;;
21806;SDS011;11065;50.786;7.840;2023-01-31T12:28:47;6.67;;;3.00;;
21806;SDS011;11065;50.786;7.840;2023-01-31T12:31:29;6.90;;;3.10;;
21806;SDS011;11065;50.786;7.840;2023-01-31T12:34:16;6.73;;;3.30;;
21806;SDS011;11065;50.786;7.840;2023-01-31T12:36:57;5.97;;;2.97;;
21806;SDS011;11065;50.786;7.840;2023-01-31T12:39:36;7.00;;;3.53;;
21806;SDS011;11065;50.786;7.840;2023-01-31T12:42:22;8.77;;;4.23;;
21806;SDS011;11065;50.786;7.840;2023-01-31T12:45:01;8.00;;;3.43;;
21806;SDS011;11065;50.786;7.840;2023-01-31T12:47:52;8.03;;;3.60;;
21806;SDS011;11065;50.786;7.840;2023-01-31T12:50:31;6.67;;;3.80;;
21806;SDS011;11065;50.786;7.840;2023-01-31T12:53:21;10.17;;;3.77;;
21806;SDS011;11065;50.786;7.840;2023-01-31T12:56:05;6.97;;;3.17;;
21806;SDS011;11065;50.786;7.840;2023-01-31T12:58:54;6.50;;;3.33;;
21806;SDS011;11065;50.786;7.840;2023-01-31T13:01:43;7.50;;;4.23;;
21806;SDS011;11065;50.786;7.840;2023-01-31T13:04:19;7.67;;;4.23;;
21806;SDS011;11065;50.786;7.840;2023-01-31T13:06:57;9.07;;;3.77;;
21806;SDS011;11065;50.786;7.840;2023-01-31T13:09:31;7.80;;;3.93;;
21806;SDS011;11065;50.786;7.840;2023-01-31T13:12:02;7.37;;;4.23;;
21806;SDS011;11065;50.786;7.840;2023-01-31T13:14:36;8.60;;;3.93;;
21806;SDS011;11065;50.786;7.840;2023-01-31T13:17:09;10.07;;;4.07;;
21806;SDS011;11065;50.786;7.840;2023-01-31T13:19:40;10.63;;;4.23;;
21806;SDS011;11065;50.786;7.840;2023-01-31T13:22:16;10.10;;;4.73;;
21806;SDS011;11065;50.786;7.840;2023-01-31T13:24:48;7.97;;;3.63;;
21806;SDS011;11065;50.786;7.840;2023-01-31T13:27:23;8.60;;;4.87;;
21806;SDS011;11065;50.786;7.840;2023-01-31T13:29:57;9.07;;;5.07;;
21806;SDS011;11065;50.786;7.840;2023-01-31T13:32:29;8.73;;;4.77;;
21806;SDS011;11065;50.786;7.840;2023-01-31T13:35:05;10.23;;;4.57;;
21806;SDS011;11065;50.786;7.840;2023-01-31T13:37:37;10.27;;;5.40;;
21806;SDS011;11065;50.786;7.840;2023-01-31T13:40:14;11.07;;;6.03;;
21806;SDS011;11065;50.786;7.840;2023-01-31T13:42:45;7.77;;;3.90;;
21806;SDS011;11065;50.786;7.840;2023-01-31T13:45:19;8.60;;;5.17;;
21806;SDS011;11065;50.786;7.840;2023-01-31T13:47:50;8.20;;;4.67;;
21806;SDS011;11065;50.786;7.840;2023-01-31T13:50:26;7.20;;;3.70;;
21806;SDS011;11065;50.786;7.840;2023-01-31T13:53:00;9.70;;;4.27;;
21806;SDS011;11065;50.786;7.840;2023-01-31T13:55:31;7.30;;;3.47;;
21806;SDS011;11065;50.786;7.840;2023-01-31T13:58:03;7.67;;;4.03;;
21806;SDS011;11065;50.786;7.840;2023-01-31T14:00:37;9.13;;;4.53;;
21806;SDS011;11065;50.786;7.840;2023-01-31T14:03:08;8.97;;;4.40;;
21806;SDS011;11065;50.786;7.840;2023-01-31T14:05:54;9.33;;;4.60;;
21806;SDS011;11065;50.786;7.840;2023-01-31T14:08:28;7.57;;;3.87;;
21806;SDS011;11065;50.786;7.840;2023-01-31T14:10:59;8.03;;;3.70;;
21806;SDS011;11065;50.786;7.840;2023-01-31T14:13:38;7.30;;;4.00;;
21806;SDS011;11065;50.786;7.840;2023-01-31T14:22:20;9.47;;;3.90;;
21806;SDS011;11065;50.786;7.840;2023-01-31T14:27:29;8.03;;;3.67;;
21806;SDS011;11065;50.786;7.840;2023-01-31T14:30:07;8.03;;;3.60;;
21806;SDS011;11065;50.786;7.840;2023-01-31T14:32:40;7.47;;;3.83;;
21806;SDS011;11065;50.786;7.840;2023-01-31T14:35:26;5.77;;;3.27;;
21806;SDS011;11065;50.786;7.840;2023-01-31T14:38:09;6.47;;;3.27;;
21806;SDS011;11065;50.786;7.840;2023-01-31T14:40:45;6.20;;;2.60;;
21806;SDS011;11065;50.786;7.840;2023-01-31T14:43:28;6.03;;;3.10;;
21806;SDS011;11065;50.786;7.840;2023-01-31T14:46:18;6.10;;;2.67;;
21806;SDS011;11065;50.786;7.840;2023-01-31T14:52:08;5.57;;;2.90;;
21806;SDS011;11065;50.786;7.840;2023-01-31T14:55:06;9.87;;;3.63;;
21806;SDS011;11065;50.786;7.840;2023-01-31T14:57:54;7.37;;;3.20;;
21806;SDS011;11065;50.786;7.840;2023-01-31T15:00:26;4.50;;;2.50;;
21806;SDS011;11065;50.786;7.840;2023-01-31T15:02:59;10.60;;;4.20;;
21806;SDS011;11065;50.786;7.840;2023-01-31T15:05:40;5.90;;;2.77;;
21806;SDS011;11065;50.786;7.840;2023-01-31T15:11:05;5.97;;;2.30;;
21806;SDS011;11065;50.786;7.840;2023-01-31T15:13:45;5.30;;;2.20;;
21806;SDS011;11065;50.786;7.840;2023-01-31T15:16:19;5.10;;;1.70;;
21806;SDS011;11065;50.786;7.840;2023-01-31T15:18:55;4.57;;;1.70;;
21806;SDS011;11065;50.786;7.840;2023-01-31T15:21:29;5.33;;;2.03;;
21806;SDS011;11065;50.786;7.840;2023-01-31T15:23:58;4.10;;;1.83;;
21806;SDS011;11065;50.786;7.840;2023-01-31T15:26:28;5.37;;;1.90;;
21806;SDS011;11065;50.786;7.840;2023-01-31T15:29:00;4.53;;;1.80;;
21806;SDS011;11065;50.786;7.840;2023-01-31T15:31:31;4.93;;;2.20;;
21806;SDS011;11065;50.786;7.840;2023-01-31T15:34:10;3.57;;;1.67;;
21806;SDS011;11065;50.786;7.840;2023-01-31T15:36:44;3.20;;;1.63;;
21806;SDS011;11065;50.786;7.840;2023-01-31T15:39:20;4.23;;;2.20;;
21806;SDS011;11065;50.786;7.840;2023-01-31T15:41:53;3.97;;;1.80;;